Time;durP1;ratioP1;P1;durP2;ratioP2;P2;SDS_P1;SDS_P2;PMS_P1;PMS_P2;Temp;Humidity;BMP_temperature;BMP_pressure;BME280_temperature;BME280_humidity;BME280_pressure;Samples;Min_cycle;Max_cycle;Signal;HPM_P1;HPM_P2
2021/08/03 00:01:25;;;;;;;1.92;1.30;;;14.90;99.90;;;;;;5050111;28;20103;-74
2021/08/03 00:03:56;;;;;;;3.90;1.30;;;14.90;99.90;;;;;;5056326;28;20618;-75
2021/08/03 00:06:23;;;;;;;1.58;1.30;;;14.80;99.90;;;;;;5061524;28;20454;-75
2021/08/03 00:08:55;;;;;;;4.65;1.35;;;14.80;99.90;;;;;;5051402;28;20499;-74
2021/08/03 00:11:21;;;;;;;1.50;1.23;;;14.70;99.90;;;;;;5067810;28;20028;-74
2021/08/03 00:13:47;;;;;;;2.80;1.42;;;14.60;99.90;;;;;;5057268;28;20028;-75
2021/08/03 00:16:14;;;;;;;5.90;1.30;;;14.60;99.90;;;;;;5058795;28;20025;-75
2021/08/03 00:18:48;;;;;;;4.20;1.77;;;14.50;99.90;;;;;;5062341;28;20033;-74
2021/08/03 00:21:13;;;;;;;3.47;1.20;;;14.50;99.90;;;;;;5058539;28;20025;-75
2021/08/03 00:23:45;;;;;;;3.65;1.38;;;14.40;99.90;;;;;;5061270;28;20035;-74
2021/08/03 00:26:13;;;;;;;2.58;1.50;;;14.40;99.90;;;;;;5065072;28;20032;-75
2021/08/03 00:28:39;;;;;;;2.28;1.50;;;14.40;99.90;;;;;;5054162;28;20040;-74
2021/08/03 00:31:05;;;;;;;7.35;1.70;;;14.30;99.90;;;;;;5053650;28;20017;-75
2021/08/03 00:33:32;;;;;;;2.38;1.30;;;14.30;99.90;;;;;;5057533;28;20036;-74
2021/08/03 00:35:57;;;;;;;4.00;1.95;;;14.20;99.90;;;;;;5062429;28;20021;-74
2021/08/03 00:38:23;;;;;;;2.38;1.25;;;14.10;99.90;;;;;;5062727;28;20130;-75
2021/08/03 00:40:57;;;;;;;1.45;1.27;;;14.10;99.90;;;;;;5063314;28;20048;-75
2021/08/03 00:43:23;;;;;;;4.88;1.48;;;14.10;99.90;;;;;;5066654;28;20501;-75
2021/08/03 00:45:48;;;;;;;1.45;1.17;;;14.10;99.90;;;;;;5071001;28;20021;-75
2021/08/03 00:48:14;;;;;;;1.30;1.20;;;14.30;99.90;;;;;;5060174;28;20059;-75
2021/08/03 00:50:39;;;;;;;1.48;1.33;;;14.30;99.90;;;;;;5059551;28;20028;-74
2021/08/03 00:53:05;;;;;;;2.33;1.50;;;14.20;99.90;;;;;;5054814;28;20102;-75
2021/08/03 00:55:30;;;;;;;2.08;1.30;;;14.20;99.90;;;;;;5059460;28;20703;-75
2021/08/03 00:57:56;;;;;;;3.60;1.30;;;14.20;99.90;;;;;;5068308;28;20115;-75
2021/08/03 01:00:21;;;;;;;2.03;1.58;;;14.10;99.90;;;;;;5058744;28;20021;-75
2021/08/03 01:02:47;;;;;;;4.45;1.55;;;14.20;99.90;;;;;;5056328;28;20052;-75
2021/08/03 01:05:13;;;;;;;1.75;1.33;;;14.20;99.90;;;;;;5055397;28;20055;-75
2021/08/03 01:08:07;;;;;;;2.00;1.38;;;14.10;99.90;;;;;;5067408;28;20125;-75
2021/08/03 01:11:05;;;;;;;2.17;1.25;;;14.20;99.90;;;;;;5066396;28;20105;-75
2021/08/03 01:13:55;;;;;;;2.85;1.30;;;14.10;99.90;;;;;;5059799;28;20029;-74
2021/08/03 01:16:34;;;;;;;3.65;1.40;;;14.10;99.90;;;;;;5065682;28;20016;-74
2021/08/03 01:19:47;;;;;;;1.58;1.35;;;14.10;99.90;;;;;;5067633;28;20182;-74
2021/08/03 01:22:39;;;;;;;2.25;1.42;;;14.10;99.90;;;;;;5042181;28;20120;-74
2021/08/03 01:25:14;;;;;;;1.27;1.17;;;14.10;99.90;;;;;;5058528;28;20471;-74
2021/08/03 01:28:10;;;;;;;1.55;1.25;;;14.10;99.90;;;;;;5068146;28;20028;-74
2021/08/03 01:30:37;;;;;;;2.03;1.45;;;14.00;99.90;;;;;;5060670;28;20116;-75
2021/08/03 01:33:05;;;;;;;4.10;1.30;;;13.90;99.90;;;;;;5061459;28;20068;-74
2021/08/03 01:35:31;;;;;;;1.65;1.40;;;13.80;99.90;;;;;;5059427;28;20148;-74
2021/08/03 01:38:00;;;;;;;1.75;1.27;;;13.80;99.90;;;;;;5065319;28;20036;-74
2021/08/03 01:40:28;;;;;;;3.30;1.60;;;13.70;99.90;;;;;;5062567;28;20114;-74
2021/08/03 01:42:55;;;;;;;2.45;1.25;;;13.60;99.90;;;;;;5065861;28;20056;-75
2021/08/03 01:45:23;;;;;;;5.03;1.08;;;13.70;99.90;;;;;;5059818;28;20490;-74
2021/08/03 01:47:49;;;;;;;1.60;1.13;;;13.70;99.90;;;;;;5065561;28;20090;-74
2021/08/03 01:50:16;;;;;;;1.42;1.25;;;13.60;99.90;;;;;;5056595;28;20033;-74
2021/08/03 01:52:42;;;;;;;1.95;1.30;;;13.60;99.90;;;;;;5064966;28;20509;-75
2021/08/03 01:55:09;;;;;;;1.40;1.30;;;13.60;99.90;;;;;;5063976;28;20125;-75
2021/08/03 01:57:36;;;;;;;3.90;1.40;;;13.60;99.90;;;;;;5061944;28;20091;-75
2021/08/03 02:00:04;;;;;;;2.83;1.40;;;13.60;99.90;;;;;;5067262;28;20047;-75
2021/08/03 02:02:30;;;;;;;1.60;1.15;;;13.60;99.90;;;;;;5056078;28;20025;-74
2021/08/03 02:04:57;;;;;;;1.50;1.40;;;13.60;99.90;;;;;;5056217;28;20029;-75
2021/08/03 02:07:23;;;;;;;4.05;1.55;;;13.60;99.90;;;;;;5052150;28;20517;-74
2021/08/03 02:09:50;;;;;;;4.28;1.30;;;13.60;99.90;;;;;;5062352;28;20029;-75
2021/08/03 02:12:15;;;;;;;2.65;1.40;;;13.60;99.90;;;;;;5057601;28;20021;-75
2021/08/03 02:14:45;;;;;;;2.38;1.20;;;13.60;99.90;;;;;;5058184;28;20040;-74
2021/08/03 02:17:21;;;;;;;1.60;1.35;;;13.50;99.90;;;;;;5061326;28;20036;-75
2021/08/03 02:19:47;;;;;;;1.98;1.70;;;13.40;99.90;;;;;;5066307;28;20036;-75
2021/08/03 02:22:14;;;;;;;4.18;1.38;;;13.30;99.90;;;;;;5058745;28;20036;-74
2021/08/03 02:24:41;;;;;;;1.98;1.60;;;13.30;99.90;;;;;;5061227;28;20021;-74
2021/08/03 02:27:07;;;;;;;2.20;1.10;;;13.30;99.90;;;;;;5057893;28;20107;-75
2021/08/03 02:29:36;;;;;;;3.38;1.55;;;13.30;99.90;;;;;;5062006;28;20120;-74
2021/08/03 02:32:03;;;;;;;3.38;1.40;;;13.20;99.90;;;;;;5054766;28;20033;-74
2021/08/03 02:34:38;;;;;;;2.33;1.10;;;13.30;99.90;;;;;;5054355;28;20033;-75
2021/08/03 02:37:09;;;;;;;3.17;1.50;;;13.30;99.90;;;;;;5050072;28;20038;-75
2021/08/03 02:39:35;;;;;;;4.35;1.42;;;13.30;99.90;;;;;;5067275;28;20394;-74
2021/08/03 02:42:01;;;;;;;2.17;1.35;;;13.20;99.90;;;;;;5065249;28;20035;-74
2021/08/03 02:44:28;;;;;;;3.33;1.42;;;13.20;99.90;;;;;;5066679;28;20040;-75
2021/08/03 02:46:54;;;;;;;2.58;1.40;;;13.20;99.90;;;;;;5054601;28;20029;-75
2021/08/03 02:49:34;;;;;;;1.60;1.50;;;13.20;99.90;;;;;;5056531;28;20021;-75
2021/08/03 02:52:05;;;;;;;1.60;1.30;;;13.20;99.90;;;;;;5059507;28;20304;-74
2021/08/03 02:54:34;;;;;;;6.60;1.48;;;13.20;99.90;;;;;;5061177;28;20517;-75
2021/08/03 02:57:04;;;;;;;2.22;1.30;;;13.20;99.90;;;;;;5056072;28;20029;-74
2021/08/03 02:59:36;;;;;;;3.43;1.67;;;13.20;99.90;;;;;;5056474;28;20025;-74
2021/08/03 03:02:05;;;;;;;1.73;1.45;;;13.10;99.90;;;;;;5058127;28;20478;-74
2021/08/03 03:04:39;;;;;;;2.83;1.83;;;13.10;99.90;;;;;;5057810;28;20085;-75
2021/08/03 03:07:15;;;;;;;1.98;1.33;;;13.10;99.90;;;;;;5057251;28;20037;-75
2021/08/03 03:09:41;;;;;;;3.25;1.60;;;13.10;99.90;;;;;;5051523;28;20115;-75
2021/08/03 03:12:08;;;;;;;3.88;1.58;;;13.10;99.90;;;;;;5062941;28;20577;-75
2021/08/03 03:14:36;;;;;;;1.85;1.33;;;13.10;99.90;;;;;;5046032;28;20031;-75
2021/08/03 03:17:02;;;;;;;2.15;1.33;;;13.10;99.90;;;;;;5060843;28;20037;-75
2021/08/03 03:19:33;;;;;;;2.25;1.50;;;13.10;99.90;;;;;;5057062;28;20021;-75
2021/08/03 03:22:04;;;;;;;3.03;1.60;;;13.10;99.90;;;;;;5053613;28;20769;-75
2021/08/03 03:24:31;;;;;;;3.63;1.55;;;13.20;99.90;;;;;;5056018;28;20021;-74
2021/08/03 03:26:57;;;;;;;5.38;1.83;;;13.30;99.90;;;;;;5065501;28;20048;-74
2021/08/03 03:29:25;;;;;;;1.98;1.48;;;13.40;99.90;;;;;;5056655;28;20111;-74
2021/08/03 03:31:53;;;;;;;1.75;1.40;;;13.40;99.90;;;;;;5063376;28;20061;-73
2021/08/03 03:34:20;;;;;;;4.75;1.45;;;13.40;99.90;;;;;;5053353;28;20029;-73
2021/08/03 03:36:47;;;;;;;3.22;1.20;;;13.50;99.90;;;;;;5054428;28;20025;-73
2021/08/03 03:39:14;;;;;;;5.57;1.40;;;13.50;99.90;;;;;;5052770;28;20029;-73
2021/08/03 03:41:45;;;;;;;2.75;1.67;;;13.50;99.90;;;;;;5062942;28;20033;-74
2021/08/03 03:44:10;;;;;;;1.67;1.50;;;13.50;99.90;;;;;;5054005;28;20657;-73
2021/08/03 03:46:56;;;;;;;2.45;1.55;;;13.60;99.90;;;;;;5059075;28;20483;-74
2021/08/03 03:49:24;;;;;;;6.15;1.50;;;13.60;99.90;;;;;;5059934;28;20032;-74
2021/08/03 03:51:50;;;;;;;3.40;1.30;;;13.60;99.90;;;;;;5049511;28;20456;-74
2021/08/03 03:54:27;;;;;;;2.05;1.77;;;13.80;99.90;;;;;;5058400;28;20100;-74
2021/08/03 03:57:00;;;;;;;2.55;1.58;;;13.80;99.90;;;;;;5060714;28;20138;-74
2021/08/03 03:59:26;;;;;;;3.03;1.60;;;13.60;99.90;;;;;;5064166;28;20128;-74
2021/08/03 04:01:57;;;;;;;1.85;1.58;;;13.50;99.90;;;;;;5060088;28;20027;-74
2021/08/03 04:04:24;;;;;;;3.10;1.55;;;13.40;99.90;;;;;;5062937;28;20037;-73
2021/08/03 04:06:51;;;;;;;2.50;1.50;;;13.50;99.90;;;;;;5061908;28;20052;-73
2021/08/03 04:09:21;;;;;;;2.78;1.77;;;13.60;99.90;;;;;;5054688;28;20021;-73
2021/08/03 04:11:49;;;;;;;1.95;1.40;;;13.80;99.90;;;;;;5062601;28;20024;-72
2021/08/03 04:14:22;;;;;;;2.92;1.85;;;13.90;99.90;;;;;;5060804;28;20481;-73
2021/08/03 04:16:49;;;;;;;2.10;1.67;;;14.00;99.90;;;;;;5062454;28;20027;-73
2021/08/03 04:19:14;;;;;;;3.80;1.60;;;14.10;99.90;;;;;;5062422;28;20032;-73
2021/08/03 04:21:40;;;;;;;4.25;1.55;;;14.20;99.90;;;;;;5062232;28;20032;-72
2021/08/03 04:24:05;;;;;;;1.45;1.33;;;14.30;99.90;;;;;;5064604;28;20027;-73
2021/08/03 04:26:33;;;;;;;5.00;1.80;;;14.40;99.90;;;;;;5061401;28;20395;-73
2021/08/03 04:28:59;;;;;;;5.22;1.73;;;14.50;99.90;;;;;;5061665;28;20032;-74
2021/08/03 04:31:24;;;;;;;3.88;1.80;;;14.50;99.90;;;;;;5059954;28;20515;-73
2021/08/03 04:33:51;;;;;;;3.78;1.90;;;14.60;99.90;;;;;;5063764;28;20115;-73
2021/08/03 04:36:16;;;;;;;3.50;1.60;;;14.70;99.90;;;;;;5062232;28;20037;-73
2021/08/03 04:38:42;;;;;;;3.05;1.75;;;14.70;99.90;;;;;;5061880;28;20021;-74
2021/08/03 04:41:07;;;;;;;1.70;1.45;;;14.80;99.90;;;;;;5064188;28;20031;-73
2021/08/03 04:43:33;;;;;;;2.63;1.73;;;14.80;99.90;;;;;;5062799;28;20025;-73
2021/08/03 04:45:58;;;;;;;6.40;1.67;;;14.90;99.90;;;;;;5062608;28;20639;-73
2021/08/03 04:48:24;;;;;;;6.18;1.67;;;14.90;99.90;;;;;;5063602;28;20052;-73
2021/08/03 04:50:49;;;;;;;2.05;1.40;;;15.00;99.90;;;;;;5059374;28;20025;-73
2021/08/03 04:53:15;;;;;;;5.90;1.63;;;15.00;99.90;;;;;;5064973;28;20070;-73
2021/08/03 04:55:40;;;;;;;1.77;1.35;;;15.10;99.90;;;;;;5063523;28;20037;-72
2021/08/03 04:58:06;;;;;;;2.08;1.52;;;15.10;99.90;;;;;;5065193;28;20028;-73
2021/08/03 05:00:31;;;;;;;10.25;1.70;;;15.20;99.90;;;;;;5060935;28;20025;-73
2021/08/03 05:02:57;;;;;;;7.57;1.77;;;15.20;99.90;;;;;;5060453;28;20039;-73
2021/08/03 05:05:24;;;;;;;1.95;1.50;;;15.30;99.90;;;;;;5063611;28;20044;-73
2021/08/03 05:07:58;;;;;;;5.18;1.60;;;15.30;99.90;;;;;;5059559;28;20506;-73
2021/08/03 05:10:24;;;;;;;1.90;1.42;;;15.30;99.90;;;;;;5056079;28;21611;-73
2021/08/03 05:12:50;;;;;;;3.05;1.40;;;15.40;99.90;;;;;;5058455;28;20032;-73
2021/08/03 05:15:15;;;;;;;3.83;1.35;;;15.40;99.90;;;;;;5053784;28;20044;-73
2021/08/03 05:17:41;;;;;;;2.65;1.67;;;15.40;99.90;;;;;;5057731;28;20017;-73
2021/08/03 05:20:35;;;;;;;3.33;1.48;;;15.40;99.90;;;;;;5063909;28;20462;-73
2021/08/03 05:23:01;;;;;;;5.95;1.60;;;15.50;99.90;;;;;;5046544;28;20115;-73
2021/08/03 05:25:27;;;;;;;3.38;1.73;;;15.40;99.90;;;;;;5066186;28;20108;-73
2021/08/03 05:27:52;;;;;;;2.67;1.55;;;15.50;99.90;;;;;;5058660;28;20515;-73
2021/08/03 05:30:18;;;;;;;4.50;1.80;;;15.50;99.90;;;;;;5065863;28;20092;-73
2021/08/03 05:32:43;;;;;;;3.25;1.52;;;15.60;99.90;;;;;;5069089;28;20195;-72
2021/08/03 05:35:09;;;;;;;2.45;1.40;;;15.60;99.90;;;;;;5061858;28;20079;-73
2021/08/03 05:37:36;;;;;;;3.22;1.55;;;15.70;99.90;;;;;;5066453;28;20048;-74
2021/08/03 05:40:05;;;;;;;3.80;1.80;;;15.70;99.90;;;;;;5069374;28;20099;-73
2021/08/03 05:42:31;;;;;;;3.60;1.23;;;15.80;99.90;;;;;;5055151;28;20039;-72
2021/08/03 05:44:56;;;;;;;3.00;1.30;;;15.90;99.90;;;;;;5072719;28;20107;-72
2021/08/03 05:47:22;;;;;;;3.60;1.70;;;15.90;99.90;;;;;;5074056;28;20105;-72
2021/08/03 05:49:47;;;;;;;3.28;1.70;;;15.90;99.90;;;;;;5067283;28;20040;-72
2021/08/03 05:52:13;;;;;;;5.00;1.63;;;16.00;99.90;;;;;;5057614;28;20029;-73
2021/08/03 05:54:38;;;;;;;1.80;1.50;;;16.00;99.90;;;;;;5062257;28;20040;-73
2021/08/03 05:57:04;;;;;;;2.22;1.42;;;16.10;99.90;;;;;;5062187;28;20074;-73
2021/08/03 05:59:29;;;;;;;2.45;1.60;;;16.20;99.90;;;;;;5061476;28;20037;-73
2021/08/03 06:01:55;;;;;;;4.22;1.60;;;16.30;99.90;;;;;;5063263;28;20078;-73
2021/08/03 06:04:20;;;;;;;4.25;1.80;;;16.30;99.90;;;;;;5065588;28;20017;-72
2021/08/03 06:06:48;;;;;;;1.80;1.35;;;16.30;99.90;;;;;;5061330;28;20048;-80
2021/08/03 06:09:14;;;;;;;1.95;1.42;;;16.30;99.90;;;;;;5060562;28;20036;-80
2021/08/03 06:11:46;;;;;;;6.78;1.55;;;16.40;99.90;;;;;;5068302;28;20029;-73
2021/08/03 06:14:13;;;;;;;2.65;1.58;;;16.40;99.90;;;;;;5074744;28;20037;-74
2021/08/03 06:16:38;;;;;;;1.75;1.48;;;16.40;99.90;;;;;;5071723;28;20068;-73
2021/08/03 06:19:05;;;;;;;8.20;1.90;;;16.40;99.90;;;;;;5071335;28;20047;-73
2021/08/03 06:21:31;;;;;;;10.52;1.92;;;16.40;99.90;;;;;;5067819;28;20033;-73
2021/08/03 06:23:57;;;;;;;3.20;1.50;;;16.40;99.90;;;;;;5062273;28;20029;-73
2021/08/03 06:26:23;;;;;;;3.42;1.83;;;16.40;99.90;;;;;;5065678;28;20510;-73
2021/08/03 06:28:51;;;;;;;5.10;1.85;;;16.40;99.90;;;;;;5059731;28;20025;-73
2021/08/03 06:31:17;;;;;;;2.20;1.50;;;16.50;99.90;;;;;;5064800;28;20031;-73
2021/08/03 06:33:46;;;;;;;6.55;1.58;;;16.60;99.90;;;;;;5057723;28;20032;-73
2021/08/03 06:36:12;;;;;;;6.70;1.40;;;16.60;99.90;;;;;;5064229;28;20136;-73
2021/08/03 06:38:38;;;;;;;2.95;1.67;;;16.60;99.90;;;;;;5057131;28;20025;-75
2021/08/03 06:41:18;;;;;;;9.77;1.55;;;16.70;99.90;;;;;;5049355;28;20039;-74
2021/08/03 06:43:56;;;;;;;1.83;1.35;;;16.80;99.90;;;;;;5057141;28;20027;-73
2021/08/03 06:46:23;;;;;;;5.20;1.83;;;16.90;99.90;;;;;;5053729;28;20016;-75
2021/08/03 06:48:56;;;;;;;3.10;1.63;;;17.00;99.90;;;;;;5061881;28;20601;-74
2021/08/03 06:51:22;;;;;;;3.20;1.45;;;17.10;99.90;;;;;;5055224;28;20021;-76
2021/08/03 06:53:49;;;;;;;5.85;1.40;;;17.10;99.90;;;;;;5060820;28;20040;-76
2021/08/03 06:56:24;;;;;;;1.80;1.30;;;17.10;99.90;;;;;;5054194;28;20415;-76
2021/08/03 06:59:03;;;;;;;4.47;1.63;;;17.10;99.90;;;;;;5058183;28;20449;-74
2021/08/03 07:02:04;;;;;;;7.53;1.60;;;17.10;99.90;;;;;;5062868;28;20389;-74
2021/08/03 07:04:43;;;;;;;3.20;1.52;;;17.10;99.90;;;;;;5058623;28;20043;-74
2021/08/03 07:07:10;;;;;;;1.98;1.30;;;17.10;99.90;;;;;;5051604;28;20056;-75
2021/08/03 07:09:41;;;;;;;1.63;1.50;;;17.10;99.90;;;;;;5059154;28;20028;-74
2021/08/03 07:12:08;;;;;;;2.42;1.40;;;17.10;99.90;;;;;;5058546;28;20043;-73
2021/08/03 07:14:36;;;;;;;2.75;1.42;;;17.20;99.90;;;;;;5051186;28;20665;-74
2021/08/03 07:17:03;;;;;;;2.17;1.35;;;17.20;99.90;;;;;;5058695;28;20039;-73
2021/08/03 07:19:30;;;;;;;3.92;1.58;;;17.20;99.90;;;;;;5057871;28;20411;-73
2021/08/03 07:21:56;;;;;;;3.17;1.80;;;17.30;99.90;;;;;;5061473;28;20047;-75
2021/08/03 07:24:23;;;;;;;12.98;1.67;;;17.30;99.90;;;;;;5048771;28;20028;-73
2021/08/03 07:26:48;;;;;;;4.55;1.80;;;17.40;99.90;;;;;;5049619;28;20094;-72
2021/08/03 07:29:14;;;;;;;2.90;1.52;;;17.40;99.90;;;;;;5058301;28;20115;-73
2021/08/03 07:31:43;;;;;;;4.45;1.90;;;17.50;99.90;;;;;;5056549;28;20047;-73
2021/08/03 07:34:09;;;;;;;5.45;1.75;;;17.50;99.90;;;;;;5060207;28;20621;-72
2021/08/03 07:36:36;;;;;;;3.40;1.70;;;17.60;99.90;;;;;;5053445;28;20448;-73
2021/08/03 07:39:04;;;;;;;4.57;1.70;;;17.60;99.90;;;;;;5053219;28;20028;-74
2021/08/03 07:41:31;;;;;;;4.25;1.52;;;17.70;99.90;;;;;;5058080;28;20157;-73
2021/08/03 07:43:57;;;;;;;2.70;1.73;;;17.70;99.90;;;;;;5063129;28;20027;-73
2021/08/03 07:46:22;;;;;;;3.25;1.80;;;17.90;99.90;;;;;;5066468;28;20908;-73
2021/08/03 07:48:51;;;;;;;5.20;1.48;;;17.90;99.90;;;;;;5063880;28;20020;-73
2021/08/03 07:51:18;;;;;;;3.70;1.80;;;18.00;99.90;;;;;;5063996;28;20406;-73
2021/08/03 07:53:47;;;;;;;5.03;1.50;;;18.00;99.90;;;;;;5063131;28;20029;-73
2021/08/03 07:56:14;;;;;;;4.13;1.38;;;17.90;99.90;;;;;;5064780;28;20086;-73
2021/08/03 07:58:40;;;;;;;8.40;1.63;;;18.00;99.90;;;;;;5065793;28;20054;-73
2021/08/03 08:01:06;;;;;;;2.53;1.50;;;18.00;99.90;;;;;;5064124;28;20420;-73
2021/08/03 08:03:33;;;;;;;7.97;1.55;;;18.10;99.90;;;;;;5062914;28;20024;-72
2021/08/03 08:05:59;;;;;;;3.72;1.45;;;18.10;99.90;;;;;;5065669;28;20045;-73
2021/08/03 08:08:24;;;;;;;1.52;1.10;;;18.10;99.90;;;;;;5064342;28;20035;-72
2021/08/03 08:10:50;;;;;;;3.00;1.35;;;18.10;99.90;;;;;;5042656;28;20025;-73
2021/08/03 08:13:15;;;;;;;3.83;1.20;;;18.20;99.90;;;;;;5055310;28;20024;-73
2021/08/03 08:15:41;;;;;;;2.35;1.10;;;18.30;99.90;;;;;;5059547;28;20111;-73
2021/08/03 08:18:08;;;;;;;4.53;1.80;;;18.40;98.80;;;;;;5062883;28;20024;-73
2021/08/03 08:20:35;;;;;;;3.92;1.23;;;18.40;99.00;;;;;;5066111;28;20097;-73
2021/08/03 08:23:00;;;;;;;2.95;1.17;;;18.60;97.60;;;;;;5064668;28;20024;-73
2021/08/03 08:25:27;;;;;;;2.38;1.30;;;18.70;97.60;;;;;;5062377;28;20115;-73
2021/08/03 08:27:52;;;;;;;2.65;1.50;;;18.90;96.70;;;;;;5065529;28;20048;-73
2021/08/03 08:30:18;;;;;;;3.42;1.38;;;19.10;96.00;;;;;;5053099;28;20059;-76
2021/08/03 08:32:43;;;;;;;4.70;1.52;;;19.30;94.90;;;;;;5055035;28;20028;-73
2021/08/03 08:35:10;;;;;;;4.13;1.05;;;19.40;94.20;;;;;;5065959;28;20029;-73
2021/08/03 08:37:36;;;;;;;2.97;1.15;;;19.50;93.60;;;;;;5064413;28;20078;-74
2021/08/03 08:40:02;;;;;;;3.05;1.02;;;19.50;93.60;;;;;;5062276;28;20032;-73
2021/08/03 08:42:29;;;;;;;4.50;1.10;;;19.40;94.20;;;;;;5067521;28;20497;-72
2021/08/03 08:44:55;;;;;;;3.72;1.20;;;19.40;94.50;;;;;;5062435;28;20124;-72
2021/08/03 08:47:24;;;;;;;3.65;1.40;;;19.50;94.10;;;;;;5062060;28;20032;-79
2021/08/03 08:49:50;;;;;;;6.32;1.15;;;19.60;94.20;;;;;;5049636;28;20094;-75
2021/08/03 08:52:16;;;;;;;1.05;0.82;;;19.50;94.90;;;;;;5053429;28;20052;-75
2021/08/03 08:54:42;;;;;;;6.25;1.23;;;19.60;94.10;;;;;;5053903;28;20115;-75
2021/08/03 08:57:08;;;;;;;4.13;1.58;;;19.60;93.60;;;;;;5051229;28;20036;-75
2021/08/03 08:59:35;;;;;;;4.97;1.20;;;19.60;92.60;;;;;;5046294;28;20103;-76
2021/08/03 09:02:00;;;;;;;1.80;1.15;;;19.60;93.60;;;;;;5058515;28;20651;-73
2021/08/03 09:04:26;;;;;;;2.75;1.00;;;19.50;92.60;;;;;;5066083;28;20406;-75
2021/08/03 09:07:06;;;;;;;4.05;1.20;;;19.50;92.90;;;;;;5067116;28;20130;-76
2021/08/03 09:09:48;;;;;;;3.40;1.20;;;19.50;93.10;;;;;;5057759;28;20029;-76
2021/08/03 09:12:14;;;;;;;3.50;1.23;;;19.70;91.50;;;;;;5060010;28;20040;-75
2021/08/03 09:14:43;;;;;;;2.70;1.00;;;19.70;91.90;;;;;;5041902;28;20458;-75
2021/08/03 09:17:39;;;;;;;2.13;0.90;;;19.90;91.60;;;;;;5054133;28;20087;-74
2021/08/03 09:20:13;;;;;;;4.75;1.20;;;20.00;92.10;;;;;;5049363;28;20031;-74
2021/08/03 09:22:48;;;;;;;3.35;0.95;;;20.10;91.40;;;;;;5052865;28;20025;-74
2021/08/03 09:25:17;;;;;;;2.03;1.02;;;20.30;91.00;;;;;;5052738;28;20104;-75
2021/08/03 09:27:48;;;;;;;3.47;1.05;;;20.40;89.70;;;;;;5054257;28;20487;-75
2021/08/03 09:30:19;;;;;;;3.63;1.00;;;20.50;88.40;;;;;;5061611;28;20051;-74
2021/08/03 09:32:47;;;;;;;1.67;1.10;;;20.50;86.30;;;;;;5061910;28;20623;-76
2021/08/03 09:35:15;;;;;;;1.00;0.90;;;20.40;86.50;;;;;;5053048;28;20016;-75
2021/08/03 09:37:43;;;;;;;2.00;0.88;;;20.40;85.40;;;;;;5059176;28;20479;-74
2021/08/03 09:40:22;;;;;;;1.98;1.10;;;20.30;85.10;;;;;;5055150;28;21216;-74
2021/08/03 09:42:58;;;;;;;4.60;1.00;;;20.40;87.20;;;;;;5061474;28;20150;-75
2021/08/03 09:45:24;;;;;;;2.83;1.00;;;20.50;88.50;;;;;;5061144;28;20032;-74
2021/08/03 09:47:50;;;;;;;2.30;1.02;;;20.60;87.70;;;;;;5059607;28;20036;-74
2021/08/03 09:50:18;;;;;;;4.22;0.98;;;20.90;85.00;;;;;;5060008;28;20034;-74
2021/08/03 09:52:45;;;;;;;1.90;0.98;;;20.90;86.00;;;;;;5057668;28;20170;-74
2021/08/03 09:55:15;;;;;;;3.53;1.15;;;21.00;89.70;;;;;;5059951;28;20256;-71
2021/08/03 09:57:43;;;;;;;2.15;1.00;;;21.20;83.20;;;;;;5052419;28;20044;-71
2021/08/03 10:00:37;;;;;;;2.95;0.98;;;21.30;81.70;;;;;;5058813;28;20108;-73
2021/08/03 10:03:04;;;;;;;2.33;1.25;;;21.20;81.20;;;;;;5054314;28;20083;-74
2021/08/03 10:05:30;;;;;;;2.63;1.20;;;21.10;84.50;;;;;;5053734;28;20060;-74
2021/08/03 10:07:57;;;;;;;2.63;1.20;;;21.10;88.60;;;;;;5059588;28;20135;-74
2021/08/03 10:10:23;;;;;;;1.80;1.17;;;21.00;84.40;;;;;;5060256;28;20565;-74
2021/08/03 10:12:48;;;;;;;1.50;1.27;;;20.90;82.30;;;;;;5065468;28;20120;-74
2021/08/03 10:15:14;;;;;;;2.97;1.20;;;20.80;81.90;;;;;;5063652;28;20510;-74
2021/08/03 10:17:52;;;;;;;5.18;1.08;;;20.60;82.90;;;;;;5060542;28;20520;-74
2021/08/03 10:20:17;;;;;;;5.07;1.15;;;20.50;83.20;;;;;;5045180;28;20025;-74
2021/08/03 10:22:52;;;;;;;4.63;1.30;;;20.40;84.50;;;;;;5056340;28;20024;-74
2021/08/03 10:25:20;;;;;;;1.95;1.20;;;20.50;84.00;;;;;;5063046;28;20056;-75
2021/08/03 10:27:52;;;;;;;1.85;1.10;;;20.50;82.90;;;;;;5059126;28;20025;-74
2021/08/03 10:30:27;;;;;;;1.58;0.95;;;20.70;83.40;;;;;;5057102;28;20039;-74
2021/08/03 10:32:55;;;;;;;3.38;1.23;;;20.80;82.50;;;;;;5059645;28;20032;-74
2021/08/03 10:35:39;;;;;;;5.30;1.50;;;20.90;81.20;;;;;;5062725;28;20432;-74
2021/08/03 10:38:07;;;;;;;3.15;1.23;;;21.10;80.70;;;;;;5061890;28;20031;-74
2021/08/03 10:40:48;;;;;;;3.97;1.33;;;21.40;84.00;;;;;;5060052;28;20021;-74
2021/08/03 10:43:16;;;;;;;3.83;1.00;;;21.60;77.00;;;;;;5059435;28;20071;-73
2021/08/03 10:45:43;;;;;;;3.33;1.23;;;21.70;75.90;;;;;;5062179;28;20024;-74
2021/08/03 10:48:08;;;;;;;4.25;1.20;;;21.90;77.50;;;;;;5066319;28;20037;-73
2021/08/03 10:50:34;;;;;;;3.78;1.08;;;22.10;72.90;;;;;;5055682;28;20032;-74
2021/08/03 10:53:05;;;;;;;7.28;1.30;;;22.20;72.90;;;;;;5053478;28;20186;-74
2021/08/03 10:55:38;;;;;;;4.28;0.95;;;22.30;72.70;;;;;;5060932;28;20406;-73
2021/08/03 10:58:09;;;;;;;1.77;1.10;;;22.40;74.40;;;;;;5063403;28;20037;-74
2021/08/03 11:00:56;;;;;;;3.45;1.00;;;22.70;70.40;;;;;;5063333;28;20017;-74
2021/08/03 11:03:30;;;;;;;1.42;0.80;;;22.80;73.30;;;;;;5061040;28;20036;-74
2021/08/03 11:06:11;;;;;;;5.97;1.10;;;23.10;75.40;;;;;;5059579;28;20021;-74
2021/08/03 11:08:47;;;;;;;1.33;0.98;;;23.30;71.40;;;;;;5058572;28;20039;-74
2021/08/03 11:11:18;;;;;;;4.15;1.45;;;23.50;64.40;;;;;;5061904;28;20082;-74
2021/08/03 11:13:45;;;;;;;2.55;1.20;;;23.60;64.20;;;;;;5060732;28;20044;-74
2021/08/03 11:16:32;;;;;;;6.43;1.08;;;23.50;68.20;;;;;;5052462;28;20426;-73
2021/08/03 11:19:03;;;;;;;0.98;0.80;;;23.30;67.00;;;;;;5062415;28;20028;-74
2021/08/03 11:21:30;;;;;;;2.60;1.13;;;23.00;64.80;;;;;;5060409;28;20056;-74
2021/08/03 11:24:03;;;;;;;1.65;0.90;;;22.80;64.90;;;;;;5061855;28;20028;-74
2021/08/03 11:26:31;;;;;;;1.90;1.10;;;22.90;66.00;;;;;;5060756;28;20044;-74
2021/08/03 11:29:12;;;;;;;1.38;1.17;;;22.90;68.50;;;;;;5062269;28;20020;-74
2021/08/03 11:31:42;;;;;;;2.65;1.00;;;22.90;68.50;;;;;;5054079;28;20052;-74
2021/08/03 11:34:13;;;;;;;1.50;0.85;;;23.10;71.20;;;;;;5057250;28;20028;-75
2021/08/03 11:37:07;;;;;;;3.63;1.00;;;23.40;73.90;;;;;;5060453;28;20409;-74
2021/08/03 11:39:54;;;;;;;1.02;0.93;;;23.80;72.60;;;;;;5055875;28;20025;-74
2021/08/03 11:42:39;;;;;;;2.45;1.10;;;24.50;69.70;;;;;;5058728;28;20033;-74
2021/08/03 11:45:20;;;;;;;2.20;1.00;;;25.30;63.90;;;;;;5057751;28;20037;-74
2021/08/03 11:47:54;;;;;;;1.25;1.10;;;25.40;61.60;;;;;;5054849;28;20029;-74
2021/08/03 11:50:29;;;;;;;1.88;0.90;;;25.70;61.80;;;;;;5055695;28;20085;-75
2021/08/03 11:53:26;;;;;;;3.33;1.08;;;26.40;60.80;;;;;;5059904;28;20024;-74
2021/08/03 11:56:08;;;;;;;1.83;1.20;;;27.20;59.00;;;;;;5047187;28;20033;-74
2021/08/03 11:58:37;;;;;;;2.00;1.05;;;27.90;53.90;;;;;;5035879;28;20437;-74
2021/08/03 12:01:05;;;;;;;2.38;1.27;;;28.10;49.70;;;;;;5054632;28;20431;-74
2021/08/03 12:03:36;;;;;;;1.90;1.20;;;27.70;50.90;;;;;;5062481;28;20180;-74
2021/08/03 12:06:04;;;;;;;2.45;1.10;;;27.20;50.20;;;;;;5060196;28;20048;-74
2021/08/03 12:08:33;;;;;;;1.23;1.08;;;27.60;52.00;;;;;;5055740;28;20029;-74
2021/08/03 12:10:58;;;;;;;1.83;1.20;;;28.30;51.50;;;;;;5055938;28;20024;-74
2021/08/03 12:13:35;;;;;;;1.48;1.20;;;29.00;46.80;;;;;;5056595;28;20102;-75
2021/08/03 12:16:03;;;;;;;2.80;1.15;;;29.60;45.30;;;;;;5055660;28;20111;-75
2021/08/03 12:18:43;;;;;;;2.40;1.40;;;29.20;47.60;;;;;;5062606;28;20017;-76
2021/08/03 12:21:10;;;;;;;2.90;1.40;;;28.10;45.10;;;;;;5054982;28;20029;-74
2021/08/03 12:23:40;;;;;;;1.95;1.20;;;27.30;48.60;;;;;;5055689;28;20116;-75
2021/08/03 12:26:18;;;;;;;2.53;1.40;;;26.90;53.00;;;;;;5055771;28;20505;-75
2021/08/03 12:28:50;;;;;;;4.38;1.33;;;27.80;53.10;;;;;;5062257;28;20279;-76
2021/08/03 12:31:23;;;;;;;1.60;1.30;;;29.20;49.80;;;;;;5054993;28;20063;-76
2021/08/03 12:33:49;;;;;;;2.72;1.35;;;30.40;46.80;;;;;;5059792;28;20017;-75
2021/08/03 12:36:16;;;;;;;2.17;1.23;;;30.80;43.70;;;;;;5056176;28;20040;-75
2021/08/03 12:39:19;;;;;;;3.60;1.20;;;30.40;44.90;;;;;;5059625;28;20043;-75
2021/08/03 12:42:05;;;;;;;2.58;1.25;;;29.60;45.10;;;;;;5061991;28;20028;-75
2021/08/03 12:44:34;;;;;;;2.05;1.10;;;30.10;44.90;;;;;;5053936;28;20070;-75
2021/08/03 12:47:10;;;;;;;3.45;1.25;;;30.80;46.70;;;;;;5059865;28;20020;-75
2021/08/03 12:49:38;;;;;;;3.40;1.35;;;31.60;45.00;;;;;;5063541;28;20474;-76
2021/08/03 12:52:15;;;;;;;5.38;1.17;;;32.20;42.60;;;;;;5061128;28;20032;-75
2021/08/03 12:54:53;;;;;;;5.75;1.58;;;31.00;42.80;;;;;;5059976;28;20032;-75
2021/08/03 12:57:23;;;;;;;1.48;1.27;;;29.60;46.50;;;;;;5063419;28;20093;-75
2021/08/03 12:59:49;;;;;;;3.65;1.63;;;28.50;49.90;;;;;;5058047;28;20033;-78